Aérodrome :
LOGIN :

S'inscrire | Disclaimer

   EN    FR    IT 

 










Légende :    VFR   VFR Marginal   IFR   IFR Intensif   IFR Très Intensif
Visi : 
Plafond : 
>= 8 km
>= 3000ft
5 à 8 km
1000 à 3000 ft
1500m à 5 km
500 à 1000 ft
800 à 1500m
200 à 500 ft
< 800m
< 200 ft
Symboles :   Orages  Brouillard  Fortes neiges  Fortes précipitations  Vent > 20 kt
SIGMETs :   Divers  Orages  Givrage  Turbulence  Onde Orograph.  Cendres Volcan.







- Altitude de l'aérodrome : 353 ft
- Code IATA : LIN


LIML - Milano Linate

DERNIER METAR :
  • 181820Z 26003KT 220V300 0300 R36/0650N FZFG BKN001 M00/M00 Q1028 NOSIG

METARs EXPIRÉS :
  • 181750Z VRB01KT 0200 R36/0400N FZFG VV/// M00/M00 Q1028 NOSIG
  • 181720Z 05002KT 0200 R36/0400N FZFG BKN001 M00/M00 Q1028 NOSIG
  • 181650Z VRB02KT 0300 R36/0500N FZFG BKN001 M00/M00 Q1028 NOSIG
  • 181620Z 28002KT 0250 R36/0500N FZFG BKN001 M00/M00 Q1028 NOSIG
  • 181550Z VRB01KT 0250 R36/0450N FZFG BKN001 M00/M00 Q1027 NOSIG

TAF TAF LIML
Valide du 18 à 18h jusqu'au 19 à 18h UTC


181700Z 1818/1918 VRB05KT 0200 FZFG OVC001
BECMG 1911/1913 0800 SN OVC005
Pas de NOTAMs connus pour ce terrain.



MET'MAP, la Météo Aéronautique d'un coup d'oeil ! - Copyright ORBIFLY Décembre 2007 - Disclaimer

ORBIFLY MET'MAP TEAM :

Programmation & Développement : Alexandra Zaïnal
Conception & Développement : Baudouin d'Aumeries
Co-Programmation & Développement : Marc-Olivier Méhu
Soutien technique & logistique : Manuel Goepfert

Contact : metmap@orbifly.com




SOURCES & CREDITS :

   NOAA